Accueil
METAR-TAF:

METAR-TAF

Aéroports :

Aéroport Franz-Josef-Strauß de Munich

Munich, Allemagne

latitude: 48-21N, longitude: 011-47E, altitude: 453 m

Observation

Le bulletin a été fait il y a 22 minutes, à 21:50 UTC
Vent 1 kt de direction variable
Température 19°C
Humidité 73%
Pression 1019 hPa
Visibilité 10 km ou plus
pas de nuages en-dessous de 1500 mètres et pas de cumulonimbus.

METAR: EDDM 212150Z VRB01KT CAVOK 19/14 Q1019 NOSIG

Heure: 00:12 (22:12 UTC)

Prévision

Le bulletin a été fait il y a 5 heures et 12 minutes, à 17:00 UTC
Prévision valable du 21 à 18 UTC au 22 à 24 UTC
Vent 4 kt de nord-est
Visibilité 10 km ou plus
pas de nuages en-dessous de 1500 mètres et pas de cumulonimbus.
Evoluant progressivement
du 22 à 09 UTC au 22 à 11 UTC
Vent 5 kt de est
Evoluant progressivement
du 22 à 17 UTC au 22 à 19 UTC
Vent 3 kt de sud-ouest

TAF: EDDM 211700Z 2118/2224 04004KT CAVOK BECMG 2209/2211 10005KT BECMG 2217/2219 22003KT

Observations et prévisions météorologiques de plus de 4000 aéroports (messages METAR et TAF).

Les stations disponibles sont représentées par des disques jaunes et rouges sur la carte.

Passer la souris dessus pour voir le nom de la station.

Cliquer dessus pour voir les observations et prévisions météorologiques.

Pour changer de carte: cliquez sur les boutons verts avec une croix noire pour zoomer, sur le bouton vert avec un tiret pour effectuer un zoom arrière, ou sur les flèches vertes pour les cartes adjacentes.


METAR-TAF: